Time;durP1;ratioP1;P1;durP2;ratioP2;P2;SDS_P1;SDS_P2;PMS_P1;PMS_P2;Temp;Humidity;BMP_temperature;BMP_pressure;BME280_temperature;BME280_humidity;BME280_pressure;Samples;Min_cycle;Max_cycle;Signal;HPM_P1;HPM_P2
2021/07/08 00:01:22;;;;;;;3.60;2.20;;;15.50;99.90;;;14.15;86.79;101531.53;3500700;40;102224;-39
2021/07/08 00:03:50;;;;;;;4.60;2.50;;;15.50;99.90;;;14.10;86.79;101532.19;3500732;40;102400;-39
2021/07/08 00:06:17;;;;;;;5.00;2.45;;;15.50;99.90;;;14.06;86.88;101530.09;3500342;40;103030;-39
2021/07/08 00:08:44;;;;;;;6.32;2.40;;;15.50;99.90;;;14.02;87.02;101537.91;3500708;40;102781;-41
2021/07/08 00:11:12;;;;;;;3.63;2.20;;;15.40;99.90;;;13.99;87.12;101532.88;3500513;40;102328;-39
2021/07/08 00:13:39;;;;;;;4.07;2.08;;;15.40;99.90;;;13.97;87.23;101537.75;3500321;40;102686;-39
2021/07/08 00:16:07;;;;;;;6.03;2.25;;;15.30;99.90;;;13.95;87.56;101540.69;3500682;40;102142;-39
2021/07/08 00:18:35;;;;;;;4.72;2.35;;;15.30;99.90;;;13.92;87.62;101529.28;3500327;40;102693;-41
2021/07/08 00:21:03;;;;;;;3.85;2.13;;;15.30;99.90;;;13.94;87.93;101541.75;3500733;40;102294;-40
2021/07/08 00:23:30;;;;;;;3.80;2.25;;;15.30;99.90;;;13.94;88.34;101533.53;3500340;40;102438;-41
2021/07/08 00:25:58;;;;;;;4.30;2.20;;;15.30;99.90;;;13.97;88.59;101528.66;3499909;40;102483;-39
2021/07/08 00:28:25;;;;;;;5.97;2.60;;;15.30;99.90;;;14.01;89.02;101533.50;3500320;40;102344;-39
2021/07/08 00:30:53;;;;;;;4.00;2.42;;;15.30;99.90;;;14.03;89.13;101523.16;3500774;40;103290;-39
2021/07/08 00:33:21;;;;;;;3.75;2.45;;;15.30;99.90;;;14.08;89.19;101527.97;3500612;40;102368;-39
2021/07/08 00:35:49;;;;;;;4.35;2.30;;;15.40;99.90;;;14.12;89.50;101522.88;3500809;40;103178;-40
2021/07/08 00:38:18;;;;;;;5.72;2.40;;;15.40;99.90;;;14.09;89.66;101525.00;3499518;40;102301;-40
2021/07/08 00:40:46;;;;;;;4.00;2.10;;;15.40;99.90;;;14.15;89.92;101527.94;3500538;40;104136;-39
2021/07/08 00:43:14;;;;;;;4.22;2.30;;;15.40;99.90;;;14.18;89.86;101533.81;3500261;40;102458;-39
2021/07/08 00:45:42;;;;;;;6.25;2.70;;;15.50;99.90;;;14.22;90.07;101537.81;3500188;40;102262;-39
2021/07/08 00:48:10;;;;;;;3.80;2.10;;;15.50;99.90;;;14.27;90.48;101541.78;3500159;40;102405;-39
2021/07/08 00:50:42;;;;;;;3.38;2.10;;;15.60;99.90;;;14.30;90.52;101533.13;3500307;40;104286;-39
2021/07/08 00:53:11;;;;;;;4.60;2.30;;;15.60;99.90;;;14.34;90.74;101534.38;3500306;40;102409;-41
2021/07/08 00:55:43;;;;;;;5.63;2.28;;;15.60;99.90;;;14.40;90.83;101536.25;3500506;40;103097;-39
2021/07/08 00:58:15;;;;;;;4.00;2.47;;;15.70;99.90;;;14.42;91.12;101525.88;3499912;40;103236;-40
2021/07/08 01:00:43;;;;;;;3.70;2.30;;;15.70;99.90;;;14.47;91.06;101530.72;3500660;40;103361;-39
2021/07/08 01:03:12;;;;;;;;;;;15.80;99.90;;;14.53;91.44;101530.66;3500896;40;102300;-40
2021/07/08 01:05:48;;;;;;;4.05;2.53;;;15.80;99.90;;;14.56;91.49;101534.00;3500387;40;102480;-39
2021/07/08 01:08:17;;;;;;;3.13;2.05;;;15.90;99.90;;;14.53;91.26;101536.13;3500322;40;102297;-39
2021/07/08 01:10:51;;;;;;;4.75;2.42;;;15.80;99.90;;;14.52;91.49;101533.63;3499887;40;102346;-39
2021/07/08 01:13:20;;;;;;;4.80;2.50;;;15.80;99.90;;;14.51;91.36;101535.53;3635308;22;103970;-41
2021/07/08 01:15:48;;;;;;;3.55;2.20;;;15.80;99.90;;;14.50;91.08;101533.84;3519660;39;103122;-42
2021/07/08 01:18:17;;;;;;;;;;;15.80;99.90;;;14.45;90.99;101533.66;3520627;39;102369;-42
2021/07/08 01:20:44;;;;;;;3.85;2.10;;;15.80;99.90;;;14.41;90.61;101532.44;3519896;39;103147;-42
2021/07/08 01:23:12;;;;;;;5.38;1.88;;;15.70;99.90;;;14.35;90.52;101538.81;3516736;39;103201;-42
2021/07/08 01:25:42;;;;;;;3.75;2.13;;;15.70;99.90;;;14.31;90.11;101532.91;3510476;40;102661;-43
2021/07/08 01:28:11;;;;;;;3.47;2.10;;;15.70;99.90;;;14.26;89.89;101535.47;3510663;40;102528;-41
2021/07/08 01:30:39;;;;;;;3.45;2.00;;;15.60;99.90;;;14.19;89.58;101541.00;3510046;40;104020;-44
2021/07/08 01:33:08;;;;;;;3.63;2.30;;;15.50;99.90;;;14.13;89.26;101546.50;3510296;40;102415;-42
2021/07/08 01:35:35;;;;;;;4.97;2.50;;;15.50;99.90;;;14.05;89.47;101533.88;3510045;40;102580;-41
2021/07/08 01:38:04;;;;;;;3.00;2.08;;;15.40;99.90;;;14.00;89.07;101537.31;3510131;40;103246;-43
2021/07/08 01:40:31;;;;;;;4.60;2.20;;;15.40;99.90;;;13.93;89.07;101534.59;3510348;40;103102;-42
2021/07/08 01:42:59;;;;;;;4.40;2.10;;;15.30;99.90;;;13.89;89.16;101532.47;3510528;40;102663;-41
2021/07/08 01:45:26;;;;;;;;;;;15.30;99.90;;;13.84;89.21;101524.94;3510852;40;102266;-41
2021/07/08 01:47:54;;;;;;;3.75;2.10;;;15.20;99.90;;;13.80;89.10;101526.41;3509963;40;102078;-41
2021/07/08 01:50:22;;;;;;;4.55;2.33;;;15.20;99.90;;;13.73;89.18;101526.44;3510282;40;103190;-41
2021/07/08 01:52:52;;;;;;;4.63;2.13;;;15.10;99.90;;;13.69;89.29;101529.81;3509712;40;102483;-42
2021/07/08 01:55:22;;;;;;;4.93;2.25;;;15.10;99.90;;;13.67;89.17;101527.31;3509515;40;102190;-43
2021/07/08 01:57:53;;;;;;;5.28;2.55;;;15.00;99.90;;;13.65;89.22;101524.78;3510368;40;103310;-42
2021/07/08 02:00:23;;;;;;;5.68;2.40;;;15.00;99.90;;;13.63;89.40;101526.03;3510271;40;102243;-42
2021/07/08 02:02:52;;;;;;;4.55;2.20;;;15.00;99.90;;;13.61;89.45;101526.28;3509940;40;102371;-42
2021/07/08 02:05:21;;;;;;;4.97;2.22;;;15.00;99.90;;;13.60;89.71;101519.09;3509696;40;102218;-42
2021/07/08 02:07:48;;;;;;;4.45;2.25;;;14.90;99.90;;;13.56;89.91;101520.59;3509824;40;102347;-42
2021/07/08 02:10:18;;;;;;;4.93;2.22;;;14.90;99.90;;;13.57;90.14;101519.53;3510079;40;103138;-42
2021/07/08 02:12:47;;;;;;;4.40;2.50;;;14.90;99.90;;;13.56;90.16;101526.06;3510000;40;102609;-41
2021/07/08 02:15:15;;;;;;;3.45;1.90;;;14.90;99.90;;;13.54;90.37;101519.97;3509897;40;104751;-42
2021/07/08 02:17:42;;;;;;;;;;;14.90;99.90;;;13.51;90.23;101526.72;3510279;40;102481;-42
2021/07/08 02:20:13;;;;;;;4.80;2.10;;;14.90;99.90;;;13.46;90.06;101515.56;3510159;40;102274;-41
2021/07/08 02:22:42;;;;;;;4.03;2.38;;;14.90;99.90;;;13.46;90.27;101525.66;3509987;40;102503;-44
2021/07/08 02:25:13;;;;;;;4.65;2.03;;;14.80;99.90;;;13.42;90.02;101519.75;3509863;40;102331;-41
2021/07/08 02:27:43;;;;;;;3.90;2.30;;;14.80;99.90;;;13.38;90.24;101524.81;3509837;40;102454;-41
2021/07/08 02:30:16;;;;;;;4.40;2.28;;;14.70;99.90;;;13.35;90.26;101525.25;3509822;40;103408;-41
2021/07/08 02:32:45;;;;;;;3.85;2.40;;;14.70;99.90;;;13.33;90.42;101519.13;3510067;40;102304;-44
2021/07/08 02:35:13;;;;;;;3.20;2.10;;;14.70;99.90;;;13.30;90.52;101527.78;3510036;40;103305;-41
2021/07/08 02:37:42;;;;;;;3.88;2.25;;;14.70;99.90;;;13.27;90.62;101517.25;3509888;40;102096;-41
2021/07/08 02:40:16;;;;;;;5.78;2.50;;;14.70;99.90;;;13.27;90.58;101521.88;3509769;40;104149;-44
2021/07/08 02:42:52;;;;;;;4.78;2.63;;;14.70;99.90;;;13.26;90.66;101520.19;3509757;40;103232;-41
2021/07/08 02:45:24;;;;;;;3.70;2.20;;;14.70;99.90;;;13.25;90.82;101524.81;3509173;40;103453;-42
2021/07/08 02:47:53;;;;;;;3.42;2.13;;;14.60;99.90;;;13.23;90.68;101525.06;3509725;40;102710;-41
2021/07/08 02:50:23;;;;;;;4.50;2.40;;;14.60;99.90;;;13.20;90.89;101530.09;3509714;40;103349;-41
2021/07/08 02:52:52;;;;;;;3.45;1.83;;;14.60;99.90;;;13.16;90.74;101529.72;3509643;40;102383;-41
2021/07/08 02:55:20;;;;;;;4.47;2.28;;;14.60;99.90;;;13.13;90.89;101537.50;3509171;40;102348;-41
2021/07/08 02:57:48;;;;;;;4.38;2.20;;;14.50;99.90;;;13.09;90.56;101537.94;3509967;40;103299;-41
2021/07/08 03:00:18;;;;;;;;;;;14.50;99.90;;;13.08;90.61;101533.50;3509935;40;103287;-41
2021/07/08 03:02:46;;;;;;;4.43;2.42;;;14.50;99.90;;;13.04;90.60;101535.00;3509445;40;102392;-42
2021/07/08 03:05:15;;;;;;;5.32;2.35;;;14.50;99.90;;;13.03;90.64;101532.44;3509221;40;103325;-41
2021/07/08 03:07:42;;;;;;;4.05;2.47;;;14.40;99.90;;;12.98;90.59;101541.28;3509553;40;102206;-41
2021/07/08 03:10:14;;;;;;;4.65;2.58;;;14.40;99.90;;;12.95;90.64;101538.97;3509588;40;104894;-42
2021/07/08 03:12:41;;;;;;;3.72;2.05;;;14.30;99.90;;;12.94;90.54;101546.38;3509553;40;102386;-43
2021/07/08 03:15:11;;;;;;;3.97;2.58;;;14.30;99.90;;;12.92;90.86;101539.41;3509479;40;102184;-42
2021/07/08 03:17:40;;;;;;;6.13;2.10;;;14.30;99.90;;;12.84;90.94;101529.50;3509116;40;102835;-41
2021/07/08 03:20:12;;;;;;;3.40;2.10;;;14.30;99.90;;;12.87;90.97;101542.78;3509424;40;104125;-43
2021/07/08 03:22:41;;;;;;;3.90;2.10;;;14.30;99.90;;;12.87;90.65;101544.69;3510249;40;102376;-44
2021/07/08 03:25:11;;;;;;;3.58;2.28;;;14.30;99.90;;;12.84;90.77;101550.56;3510560;40;102214;-40
2021/07/08 03:27:40;;;;;;;4.68;2.30;;;14.20;99.90;;;12.81;90.88;101549.09;3510637;40;102345;-41
2021/07/08 03:30:12;;;;;;;4.70;2.45;;;14.20;99.90;;;12.82;90.74;101552.69;3510372;40;102153;-41
2021/07/08 03:32:40;;;;;;;4.40;2.20;;;14.20;99.90;;;12.81;90.95;101554.56;3510594;40;102276;-41
2021/07/08 03:35:09;;;;;;;;;;;14.20;99.90;;;12.77;90.99;101553.31;3511318;40;103178;-41
2021/07/08 03:37:37;;;;;;;5.80;2.80;;;14.20;99.90;;;12.77;91.01;101545.94;3510929;40;102150;-42
2021/07/08 03:40:07;;;;;;;3.72;2.10;;;14.20;99.90;;;12.78;91.38;101544.03;3510516;40;102329;-41
2021/07/08 03:42:36;;;;;;;6.07;2.20;;;14.20;99.90;;;12.77;91.44;101543.22;3510580;40;102243;-41
2021/07/08 03:45:06;;;;;;;3.35;2.08;;;14.20;99.90;;;12.77;91.55;101536.88;3510596;40;102340;-41
2021/07/08 03:47:33;;;;;;;4.63;2.22;;;14.10;99.90;;;12.76;91.40;101547.00;3510590;40;102423;-42
2021/07/08 03:50:01;;;;;;;4.20;2.63;;;14.20;99.90;;;12.76;91.35;101551.63;3510303;40;102294;-46
2021/07/08 03:52:28;;;;;;;4.18;2.05;;;14.20;99.90;;;12.76;91.46;101560.69;3510310;40;102287;-40
2021/07/08 03:54:56;;;;;;;5.07;2.60;;;14.20;99.90;;;12.80;91.73;101572.03;3510510;40;102389;-41
2021/07/08 03:57:23;;;;;;;3.92;3.03;;;14.20;99.90;;;12.82;91.89;101563.63;3510609;40;102189;-41
2021/07/08 03:59:51;;;;;;;3.83;2.70;;;14.20;99.90;;;12.86;92.17;101565.72;3510642;40;103192;-41
2021/07/08 04:02:19;;;;;;;4.13;2.80;;;14.20;99.90;;;12.91;92.45;101567.84;3510352;40;102347;-41
2021/07/08 04:04:46;;;;;;;4.78;2.67;;;14.30;99.90;;;12.94;92.97;101568.28;3510263;40;104124;-42
2021/07/08 04:07:14;;;;;;;4.15;2.20;;;14.30;99.90;;;12.98;92.99;101563.19;3510115;40;102408;-43
2021/07/08 04:09:41;;;;;;;4.13;2.38;;;14.30;99.90;;;12.99;93.05;101562.16;3510532;40;102442;-41
2021/07/08 04:12:09;;;;;;;4.43;2.50;;;14.30;99.90;;;13.02;92.96;101559.00;3510846;40;102281;-41
2021/07/08 04:14:37;;;;;;;4.88;2.45;;;14.40;99.90;;;13.07;92.76;101558.34;3510292;40;103360;-41
2021/07/08 04:17:05;;;;;;;4.25;2.70;;;14.40;99.90;;;13.11;92.78;101561.53;3510559;40;102376;-42
2021/07/08 04:19:32;;;;;;;7.63;3.00;;;14.40;99.90;;;13.14;92.64;101561.09;3510390;40;103308;-42
2021/07/08 04:21:59;;;;;;;6.68;3.00;;;14.50;99.90;;;13.17;92.68;101555.19;3510345;40;104285;-41
2021/07/08 04:24:27;;;;;;;5.35;2.90;;;14.50;99.90;;;13.23;92.74;101573.53;3510361;40;102371;-41
2021/07/08 04:26:54;;;;;;;4.53;2.72;;;14.50;99.90;;;13.30;92.82;101570.78;3510227;40;102531;-41
2021/07/08 04:29:22;;;;;;;5.03;2.72;;;14.60;99.90;;;13.36;92.81;101576.25;3509956;40;102309;-41
2021/07/08 04:31:49;;;;;;;5.43;2.60;;;14.60;99.90;;;13.44;92.82;101567.00;3510062;40;102479;-41
2021/07/08 04:34:17;;;;;;;5.10;3.10;;;14.70;99.90;;;13.53;93.14;101570.38;3510391;40;102349;-41
2021/07/08 04:36:44;;;;;;;4.72;3.03;;;14.80;99.90;;;13.62;93.15;101581.94;3510611;40;102395;-41
2021/07/08 04:39:12;;;;;;;5.30;2.90;;;14.90;99.90;;;13.74;92.84;101582.09;3510316;40;102324;-41
2021/07/08 04:41:39;;;;;;;5.18;2.92;;;14.90;99.90;;;13.87;93.02;101581.22;3510441;40;102327;-45
2021/07/08 04:44:07;;;;;;;4.53;2.90;;;15.10;99.90;;;13.97;93.18;101583.50;3509745;40;102317;-41
2021/07/08 04:46:34;;;;;;;5.30;3.28;;;15.20;99.90;;;14.02;93.20;101590.03;3510310;40;102296;-41
2021/07/08 04:49:02;;;;;;;5.93;2.85;;;15.20;99.90;;;14.09;93.12;101590.03;3510032;40;104096;-42
2021/07/08 04:51:30;;;;;;;5.03;3.15;;;15.30;99.90;;;14.17;93.16;101588.91;3510345;40;102315;-44
2021/07/08 04:53:57;;;;;;;6.03;2.88;;;15.40;99.90;;;14.24;93.19;101592.50;3510044;40;103162;-40
2021/07/08 04:56:24;;;;;;;4.32;3.10;;;15.40;99.90;;;14.30;93.19;101590.75;3510264;40;102555;-41
2021/07/08 04:58:52;;;;;;;5.00;3.33;;;15.50;99.90;;;14.40;93.33;101593.88;3509880;40;103330;-43
2021/07/08 05:01:19;;;;;;;8.18;3.42;;;15.60;99.90;;;14.50;93.39;101590.66;3510413;40;102513;-41
2021/07/08 05:03:47;;;;;;;6.15;3.20;;;15.70;99.90;;;14.58;93.19;101584.06;3509790;40;102642;-42
2021/07/08 05:06:14;;;;;;;8.63;3.40;;;15.70;99.90;;;14.66;93.12;101581.06;3510107;40;102380;-41
2021/07/08 05:08:42;;;;;;;5.25;3.20;;;15.80;99.90;;;14.74;92.89;101582.75;3509705;40;102466;-41
2021/07/08 05:11:09;;;;;;;5.55;3.55;;;15.90;99.90;;;14.83;93.26;101584.13;3510194;40;102263;-42
2021/07/08 05:13:36;;;;;;;5.72;3.35;;;16.00;99.90;;;14.90;93.09;101571.19;3510408;40;102331;-41
2021/07/08 05:16:04;;;;;;;5.15;3.38;;;16.10;99.90;;;15.00;93.21;101569.88;3509770;40;102185;-41
2021/07/08 05:18:32;;;;;;;5.35;3.38;;;16.20;99.90;;;15.10;93.34;101561.94;3510429;40;102308;-41
2021/07/08 05:21:00;;;;;;;5.15;3.47;;;16.20;99.90;;;15.24;93.48;101570.91;3510225;40;102388;-41
2021/07/08 05:23:30;;;;;;;5.53;3.70;;;16.30;99.90;;;15.32;93.23;101573.34;3509962;40;102414;-41
2021/07/08 05:26:01;;;;;;;5.80;3.90;;;16.40;99.90;;;15.41;93.24;101567.59;3509582;40;103242;-41
2021/07/08 05:28:30;;;;;;;7.53;3.92;;;16.50;99.90;;;15.48;93.34;101574.69;3510339;40;103709;-42
2021/07/08 05:30:58;;;;;;;6.03;3.63;;;16.50;99.90;;;15.56;93.05;101576.28;3510368;40;102273;-42
2021/07/08 05:33:26;;;;;;;7.35;4.13;;;16.60;99.90;;;15.64;92.97;101576.00;3509907;40;102237;-44
2021/07/08 05:35:53;;;;;;;6.53;4.47;;;16.70;99.90;;;15.78;93.13;101578.59;3510100;40;102179;-41
2021/07/08 05:38:20;;;;;;;11.23;4.38;;;16.80;99.90;;;15.88;92.91;101572.56;3510300;40;103353;-41
2021/07/08 05:40:48;;;;;;;6.78;4.30;;;16.90;99.90;;;15.99;92.24;101571.00;3510393;40;102575;-44
2021/07/08 05:43:15;;;;;;;8.55;5.05;;;17.00;99.90;;;16.07;91.55;101567.91;3509889;40;102797;-41
2021/07/08 05:45:43;;;;;;;7.25;4.40;;;17.10;99.90;;;16.17;90.92;101572.88;3510120;40;103271;-41
2021/07/08 05:48:10;;;;;;;6.00;3.92;;;17.20;99.90;;;16.28;90.34;101566.56;3510115;40;102339;-41
2021/07/08 05:50:37;;;;;;;7.22;4.18;;;17.30;99.90;;;16.43;89.94;101576.34;3510238;40;103226;-42
2021/07/08 05:53:05;;;;;;;7.93;4.20;;;17.40;99.90;;;16.54;90.02;101562.63;3510321;40;104153;-41
2021/07/08 05:55:32;;;;;;;7.97;5.05;;;17.50;99.90;;;16.65;88.94;101569.22;3510119;40;102683;-41
2021/07/08 05:58:00;;;;;;;8.70;4.40;;;17.60;99.90;;;16.74;88.31;101579.91;3510250;40;102176;-41
2021/07/08 06:00:28;;;;;;;6.28;4.07;;;17.70;99.90;;;16.81;87.76;101578.72;3510513;40;102472;-41
2021/07/08 06:02:55;;;;;;;9.93;4.78;;;17.80;99.90;;;16.90;87.61;101592.16;3510196;40;104110;-42
2021/07/08 06:05:26;;;;;;;6.80;4.55;;;17.90;99.90;;;17.01;87.12;101596.91;3510228;40;102407;-41
2021/07/08 06:07:54;;;;;;;6.75;4.47;;;17.90;99.90;;;17.09;86.89;101593.78;3509785;40;102195;-42
2021/07/08 06:10:21;;;;;;;9.25;4.72;;;18.00;99.90;;;17.16;85.17;101598.34;3510281;40;103344;-41
2021/07/08 06:12:49;;;;;;;8.70;4.88;;;18.10;99.90;;;17.25;85.00;101591.41;3509783;40;103181;-41
2021/07/08 06:15:17;;;;;;;7.38;4.22;;;18.20;99.90;;;17.34;84.50;101601.00;3509826;40;102377;-42
2021/07/08 06:17:44;;;;;;;;;;;18.30;99.90;;;17.46;84.88;101603.75;3511153;40;102205;-41
2021/07/08 06:20:14;;;;;;;8.73;4.70;;;18.30;99.90;;;17.49;83.38;101605.19;3510480;40;102268;-42
2021/07/08 06:22:41;;;;;;;9.43;4.90;;;18.40;99.90;;;17.58;83.57;101611.19;3510324;40;104210;-41
2021/07/08 06:25:10;;;;;;;8.57;5.00;;;18.50;99.90;;;17.66;83.89;101617.19;3510495;40;102402;-42
2021/07/08 06:27:39;;;;;;;8.82;5.30;;;18.60;99.90;;;17.74;83.43;101615.13;3510159;40;103144;-41
2021/07/08 06:30:08;;;;;;;7.90;5.15;;;18.60;99.90;;;17.85;81.84;101614.28;3510207;40;102517;-41
2021/07/08 06:32:36;;;;;;;9.15;4.88;;;18.70;99.90;;;18.02;82.30;101613.56;3509798;40;102387;-42
2021/07/08 06:35:07;;;;;;;8.05;5.07;;;18.80;99.90;;;18.19;80.72;101613.66;3510051;40;102418;-42
2021/07/08 06:37:36;;;;;;;10.18;5.45;;;19.00;99.90;;;18.33;78.81;101623.31;3510028;40;102252;-42
2021/07/08 06:40:05;;;;;;;9.45;5.38;;;19.20;99.90;;;18.49;76.99;101621.69;3510355;40;102548;-41
2021/07/08 06:42:34;;;;;;;7.38;4.82;;;19.30;99.90;;;18.73;78.34;101618.81;3510268;40;102303;-41
2021/07/08 06:45:02;;;;;;;8.80;5.00;;;19.50;99.90;;;19.03;74.88;101614.94;3510225;40;102420;-41
2021/07/08 06:47:37;;;;;;;9.38;5.22;;;19.70;99.90;;;19.31;74.96;101626.19;3510275;40;102490;-41
2021/07/08 06:50:06;;;;;;;10.38;5.25;;;20.00;99.90;;;19.55;75.52;101627.69;3510181;40;103365;-44
2021/07/08 06:52:35;;;;;;;7.43;5.45;;;20.20;99.90;;;19.75;75.00;101626.28;3510156;40;104224;-42
2021/07/08 06:55:05;;;;;;;7.68;4.60;;;20.40;99.90;;;19.98;71.83;101621.66;3510305;40;102135;-41
2021/07/08 06:57:33;;;;;;;9.52;4.65;;;20.60;99.90;;;20.07;71.17;101624.81;3510361;40;103220;-41
2021/07/08 07:00:01;;;;;;;8.50;4.25;;;20.70;99.90;;;20.23;70.71;101634.16;3510167;40;102243;-41
2021/07/08 07:02:28;;;;;;;;;;;20.90;99.90;;;20.41;70.08;101632.97;3510516;40;103681;-40
2021/07/08 07:04:56;;;;;;;8.60;4.72;;;21.10;99.90;;;20.72;70.59;101638.88;3510293;40;102209;-43
2021/07/08 07:07:23;;;;;;;7.25;4.28;;;21.30;99.90;;;20.72;66.26;101641.63;3509916;40;102792;-41
2021/07/08 07:09:51;;;;;;;9.25;3.83;;;21.40;99.90;;;20.74;65.46;101645.00;3510461;40;102486;-42
2021/07/08 07:12:18;;;;;;;9.27;4.50;;;21.50;99.90;;;20.74;64.53;101633.03;3510198;40;102316;-42
2021/07/08 07:14:46;;;;;;;6.93;4.20;;;21.50;99.90;;;20.62;65.19;101638.75;3652041;22;103277;-39
2021/07/08 07:17:13;;;;;;;9.45;5.45;;;21.50;99.90;;;20.61;65.80;101648.16;3531699;39;104297;-39
2021/07/08 07:19:41;;;;;;;8.55;4.90;;;21.40;99.90;;;20.61;67.34;101645.38;3529222;39;102084;-39
2021/07/08 07:22:08;;;;;;;8.73;4.53;;;21.40;99.90;;;20.78;69.23;101642.50;3529249;39;102317;-39
2021/07/08 07:24:36;;;;;;;15.73;5.65;;;21.60;99.90;;;20.78;65.76;101640.59;3521843;39;102369;-39
2021/07/08 07:27:04;;;;;;;9.57;5.15;;;21.60;99.90;;;20.80;66.48;101654.19;3519343;40;102901;-39
2021/07/08 07:29:32;;;;;;;10.77;5.13;;;21.60;99.90;;;20.84;68.15;101649.84;3519143;39;103692;-39
2021/07/08 07:31:59;;;;;;;11.13;4.20;;;21.60;99.90;;;20.87;66.45;101660.41;3518921;40;103567;-40
2021/07/08 07:34:27;;;;;;;10.73;4.47;;;21.60;99.90;;;20.95;66.53;101664.59;3526260;39;102501;-39
2021/07/08 07:36:54;;;;;;;9.55;4.53;;;21.70;99.90;;;21.13;65.72;101661.47;3519444;40;103479;-39
2021/07/08 07:39:21;;;;;;;8.10;3.80;;;21.80;99.90;;;21.13;64.47;101658.69;3525966;39;102319;-39
2021/07/08 07:41:49;;;;;;;8.60;3.85;;;21.80;99.90;;;21.08;64.92;101661.41;3518688;40;103096;-40
2021/07/08 07:44:16;;;;;;;7.85;3.70;;;21.90;99.90;;;21.09;66.20;101665.88;3519538;40;103084;-40
2021/07/08 07:46:44;;;;;;;9.85;3.33;;;21.90;99.90;;;21.22;65.96;101667.38;3519083;40;102274;-39
2021/07/08 07:49:13;;;;;;;8.85;3.70;;;22.00;99.90;;;21.33;63.06;101673.84;3519201;40;102475;-39
2021/07/08 07:51:41;;;;;;;7.78;3.10;;;22.00;99.90;;;21.27;64.90;101683.22;3519262;39;103537;-39
2021/07/08 07:54:08;;;;;;;6.90;3.30;;;22.00;99.90;;;21.30;62.01;101674.38;3518840;39;102547;-39
2021/07/08 07:56:36;;;;;;;4.60;2.70;;;22.00;99.90;;;21.44;61.99;101673.91;3518850;40;102328;-39
2021/07/08 07:59:04;;;;;;;5.10;2.72;;;22.10;99.90;;;21.50;62.50;101667.31;3519237;40;102803;-40
2021/07/08 08:01:31;;;;;;;7.78;3.30;;;22.20;99.90;;;21.46;58.96;101667.00;3519100;39;103352;-41
2021/07/08 08:04:00;;;;;;;;;;;22.20;99.90;;;21.51;63.91;101666.22;3519267;40;102355;-39
2021/07/08 08:09:13;;;;;;;3.47;1.92;;;22.10;99.90;;;21.47;58.83;101670.59;3519907;40;102251;-41
2021/07/08 08:11:41;;;;;;;8.00;3.40;;;22.10;99.90;;;21.60;59.66;101664.59;3520159;40;102283;-39
2021/07/08 08:14:09;;;;;;;;;;;22.30;99.90;;;21.66;57.40;101660.78;3520455;39;102915;-39
2021/07/08 08:16:36;;;;;;;7.25;2.60;;;22.40;99.90;;;21.91;59.94;101659.28;3518972;40;103406;-39
2021/07/08 08:19:04;;;;;;;;;;;22.60;99.90;;;22.03;58.74;101650.72;3520990;39;102439;-40
2021/07/08 08:21:31;;;;;;;4.75;2.67;;;22.70;99.90;;;22.15;57.20;101647.72;3520071;39;102361;-39
2021/07/08 08:23:59;;;;;;;6.25;3.13;;;22.70;99.90;;;22.30;59.86;101649.72;3519824;39;102497;-39
2021/07/08 08:26:26;;;;;;;6.03;2.80;;;22.90;99.90;;;22.59;59.10;101652.06;3520225;39;103583;-40
2021/07/08 08:28:54;;;;;;;5.32;2.72;;;23.10;99.90;;;22.69;57.52;101654.03;3520240;39;102396;-39
2021/07/08 08:31:21;;;;;;;6.07;2.40;;;23.20;99.90;;;23.06;54.89;101654.94;3520388;39;103217;-39
2021/07/08 08:33:49;;;;;;;6.13;2.65;;;23.50;99.90;;;23.25;55.96;101652.44;3520074;40;102477;-39
2021/07/08 08:36:16;;;;;;;6.00;2.92;;;23.70;99.90;;;23.38;57.71;101659.41;3520233;39;102743;-40
2021/07/08 08:38:44;;;;;;;;;;;23.90;99.90;;;23.62;54.52;101656.03;3520737;39;102603;-39
2021/07/08 08:41:11;;;;;;;5.53;2.58;;;24.10;99.90;;;23.44;53.21;101665.81;3520009;39;102262;-39
2021/07/08 08:43:40;;;;;;;6.85;3.05;;;24.00;99.90;;;23.34;55.77;101667.50;3519988;39;102522;-40
2021/07/08 08:46:08;;;;;;;7.20;3.00;;;24.00;99.90;;;23.09;54.19;101666.34;3519933;39;103179;-39
2021/07/08 08:48:35;;;;;;;5.57;2.88;;;23.90;99.90;;;22.98;57.20;101661.88;3519852;40;102466;-39
2021/07/08 08:51:03;;;;;;;;;;;23.80;99.90;;;22.87;56.89;101654.63;3520875;39;102341;-39
2021/07/08 08:53:30;;;;;;;6.28;2.60;;;23.70;99.90;;;22.58;57.96;101646.78;3520031;39;102076;-39
2021/07/08 08:55:58;;;;;;;7.30;2.63;;;23.40;99.90;;;22.62;56.23;101645.13;3519461;39;102563;-39
2021/07/08 08:58:26;;;;;;;4.57;2.60;;;23.40;99.90;;;22.69;58.37;101654.91;3519871;40;102272;-39
2021/07/08 09:01:02;;;;;;;6.50;2.75;;;23.50;99.90;;;22.76;57.13;101671.28;3519927;39;102523;-39
2021/07/08 09:03:34;;;;;;;7.15;2.80;;;23.50;99.90;;;22.94;57.20;101666.31;3520068;39;102679;-39
2021/07/08 09:06:09;;;;;;;6.72;3.28;;;23.60;99.90;;;23.13;56.96;101675.81;3519764;39;104348;-40
2021/07/08 09:08:53;;;;;;;9.20;3.22;;;23.70;99.90;;;23.35;53.65;101674.75;3519878;40;103359;-39
2021/07/08 09:11:25;;;;;;;4.82;2.83;;;24.00;99.90;;;23.24;52.30;101676.66;3519586;39;102390;-39
2021/07/08 09:14:02;;;;;;;7.75;3.05;;;24.10;99.90;;;23.31;56.46;101684.72;3519511;39;102440;-38
2021/07/08 09:16:40;;;;;;;7.20;2.65;;;24.00;99.90;;;23.08;53.54;101688.88;3520657;40;103329;-39
2021/07/08 09:19:19;;;;;;;5.30;2.50;;;24.00;99.90;;;22.89;53.00;101683.00;3519124;39;102820;-39
2021/07/08 09:21:51;;;;;;;6.22;2.58;;;23.90;99.90;;;22.94;56.13;101677.44;3519702;39;102228;-40
2021/07/08 09:24:29;;;;;;;6.43;2.50;;;23.80;99.90;;;23.03;56.31;101677.75;3519988;39;102304;-39
2021/07/08 09:27:02;;;;;;;4.32;2.60;;;23.80;99.90;;;23.19;56.68;101667.47;3519918;39;103367;-39
2021/07/08 09:29:38;;;;;;;5.53;2.42;;;23.90;99.90;;;23.45;55.40;101664.69;3520344;39;103530;-39
2021/07/08 09:32:10;;;;;;;4.38;2.20;;;24.10;99.90;;;23.68;56.20;101661.31;3519638;39;102207;-39
2021/07/08 09:34:41;;;;;;;5.07;2.20;;;24.20;99.90;;;23.86;53.04;101659.03;3519767;40;102875;-41
2021/07/08 09:37:19;;;;;;;4.10;2.20;;;24.40;99.90;;;23.92;50.89;101665.44;3519783;39;103136;-39
2021/07/08 09:39:49;;;;;;;6.57;2.40;;;24.50;99.90;;;23.97;48.75;101673.78;3519649;39;102303;-40
2021/07/08 09:42:34;;;;;;;4.40;2.13;;;24.70;99.90;;;23.90;50.55;101681.59;3526603;39;102244;-39
2021/07/08 09:45:14;;;;;;;5.43;2.33;;;24.60;99.90;;;24.05;52.27;101677.97;3519144;39;102704;-39
2021/07/08 09:47:45;;;;;;;5.85;2.33;;;24.70;99.90;;;24.12;51.88;101684.06;3519701;40;103007;-38
2021/07/08 09:50:30;;;;;;;5.55;2.28;;;24.70;99.90;;;24.23;53.04;101680.16;3519212;39;102259;-39
2021/07/08 09:53:31;;;;;;;4.50;2.20;;;24.80;99.90;;;24.24;50.08;101678.19;3519793;39;102503;-40
2021/07/08 09:58:59;;;;;;;6.07;2.43;;;24.90;99.90;;;23.94;48.37;101677.13;3519614;39;102212;-39
2021/07/08 10:01:27;;;;;;;6.10;2.42;;;24.70;99.90;;;24.08;51.49;101683.81;3520166;39;102569;-39
2021/07/08 10:03:56;;;;;;;5.97;2.60;;;24.80;99.90;;;24.05;49.43;101675.19;3519775;39;103214;-39
2021/07/08 10:06:25;;;;;;;5.35;2.72;;;24.80;99.90;;;24.19;52.92;101687.41;3519859;39;102365;-39
2021/07/08 10:08:56;;;;;;;4.50;2.65;;;24.80;99.90;;;24.30;52.70;101677.06;3519396;39;102157;-39
2021/07/08 10:11:24;;;;;;;5.90;3.00;;;24.90;99.90;;;24.26;51.52;101673.16;3519489;39;102341;-39
2021/07/08 10:13:52;;;;;;;3.25;2.30;;;24.90;99.90;;;24.28;51.75;101673.72;3519503;39;103233;-38
2021/07/08 10:16:21;;;;;;;6.22;2.78;;;24.90;99.90;;;24.38;52.66;101661.66;3519729;39;102351;-40
2021/07/08 10:18:57;;;;;;;5.93;2.90;;;24.90;99.90;;;24.42;52.27;101673.94;3519092;39;102285;-39
2021/07/08 10:21:29;;;;;;;6.97;3.03;;;25.00;99.90;;;24.41;54.59;101675.06;3519635;39;102356;-39